sensor_id;sensor_type;location;lat;lon;timestamp;temperature;humidity
7194;DHT22;3638;48.820;9.244;2023-07-20T00:01:47;20.90;90.60
7194;DHT22;3638;48.820;9.244;2023-07-20T00:04:14;20.90;90.40
7194;DHT22;3638;48.820;9.244;2023-07-20T00:06:41;20.90;90.60
7194;DHT22;3638;48.820;9.244;2023-07-20T00:11:36;20.70;91.30
7194;DHT22;3638;48.820;9.244;2023-07-20T00:14:04;20.80;91.20
7194;DHT22;3638;48.820;9.244;2023-07-20T00:16:31;20.70;91.20
7194;DHT22;3638;48.820;9.244;2023-07-20T00:18:59;20.60;91.40
7194;DHT22;3638;48.820;9.244;2023-07-20T00:23:54;20.50;91.50
7194;DHT22;3638;48.820;9.244;2023-07-20T00:26:20;20.50;91.30
7194;DHT22;3638;48.820;9.244;2023-07-20T00:28:49;20.40;90.60
7194;DHT22;3638;48.820;9.244;2023-07-20T00:33:44;20.40;90.90
7194;DHT22;3638;48.820;9.244;2023-07-20T00:36:12;20.40;90.40
7194;DHT22;3638;48.820;9.244;2023-07-20T00:41:06;20.30;90.10
7194;DHT22;3638;48.820;9.244;2023-07-20T00:43:33;20.30;89.70
7194;DHT22;3638;48.820;9.244;2023-07-20T00:46:00;20.20;90.00
7194;DHT22;3638;48.820;9.244;2023-07-20T00:48:28;20.20;89.70
7194;DHT22;3638;48.820;9.244;2023-07-20T00:50:55;20.20;90.00
7194;DHT22;3638;48.820;9.244;2023-07-20T00:53:24;20.20;89.90
7194;DHT22;3638;48.820;9.244;2023-07-20T00:55:51;20.10;90.10
7194;DHT22;3638;48.820;9.244;2023-07-20T00:58:18;20.10;90.00
7194;DHT22;3638;48.820;9.244;2023-07-20T01:03:12;20.00;90.00
7194;DHT22;3638;48.820;9.244;2023-07-20T01:05:44;19.90;90.10
7194;DHT22;3638;48.820;9.244;2023-07-20T01:08:24;19.90;89.80
7194;DHT22;3638;48.820;9.244;2023-07-20T01:10:59;19.80;89.90
7194;DHT22;3638;48.820;9.244;2023-07-20T01:15:57;19.70;90.10
7194;DHT22;3638;48.820;9.244;2023-07-20T01:18:27;19.70;90.20
7194;DHT22;3638;48.820;9.244;2023-07-20T01:20:58;19.70;90.20
7194;DHT22;3638;48.820;9.244;2023-07-20T01:23:50;19.60;90.40
7194;DHT22;3638;48.820;9.244;2023-07-20T01:26:37;19.50;90.50
7194;DHT22;3638;48.820;9.244;2023-07-20T01:29:35;19.50;90.50
7194;DHT22;3638;48.820;9.244;2023-07-20T01:32:11;19.40;90.90
7194;DHT22;3638;48.820;9.244;2023-07-20T01:34:40;19.40;91.10
7194;DHT22;3638;48.820;9.244;2023-07-20T01:37:08;19.30;91.00
7194;DHT22;3638;48.820;9.244;2023-07-20T01:39:36;19.30;90.90
7194;DHT22;3638;48.820;9.244;2023-07-20T01:42:04;19.30;91.00
7194;DHT22;3638;48.820;9.244;2023-07-20T01:44:31;19.30;91.40
7194;DHT22;3638;48.820;9.244;2023-07-20T01:46:58;19.40;91.10
7194;DHT22;3638;48.820;9.244;2023-07-20T01:49:26;19.30;91.30
7194;DHT22;3638;48.820;9.244;2023-07-20T01:54:20;19.20;91.50
7194;DHT22;3638;48.820;9.244;2023-07-20T01:56:47;19.10;91.70
7194;DHT22;3638;48.820;9.244;2023-07-20T02:01:41;19.10;91.80
7194;DHT22;3638;48.820;9.244;2023-07-20T02:04:08;19.00;91.80
7194;DHT22;3638;48.820;9.244;2023-07-20T02:06:36;19.00;92.20
7194;DHT22;3638;48.820;9.244;2023-07-20T02:09:03;19.00;92.20
7194;DHT22;3638;48.820;9.244;2023-07-20T02:11:30;19.00;92.50
7194;DHT22;3638;48.820;9.244;2023-07-20T02:13:57;18.90;92.50
7194;DHT22;3638;48.820;9.244;2023-07-20T02:16:24;18.90;92.60
7194;DHT22;3638;48.820;9.244;2023-07-20T02:18:52;18.80;92.70
7194;DHT22;3638;48.820;9.244;2023-07-20T02:21:19;18.80;92.90
7194;DHT22;3638;48.820;9.244;2023-07-20T02:23:47;18.80;92.80
7194;DHT22;3638;48.820;9.244;2023-07-20T02:26:14;18.80;93.10
7194;DHT22;3638;48.820;9.244;2023-07-20T02:28:41;18.70;93.20
7194;DHT22;3638;48.820;9.244;2023-07-20T02:31:07;18.70;93.30
7194;DHT22;3638;48.820;9.244;2023-07-20T02:33:34;18.70;93.10
7194;DHT22;3638;48.820;9.244;2023-07-20T02:36:01;18.60;93.40
7194;DHT22;3638;48.820;9.244;2023-07-20T02:38:28;18.60;93.70
7194;DHT22;3638;48.820;9.244;2023-07-20T02:40:56;18.50;93.70
7194;DHT22;3638;48.820;9.244;2023-07-20T02:43:23;18.50;93.50
7194;DHT22;3638;48.820;9.244;2023-07-20T02:45:50;18.40;93.90
7194;DHT22;3638;48.820;9.244;2023-07-20T02:48:17;18.40;94.30
7194;DHT22;3638;48.820;9.244;2023-07-20T02:50:44;18.40;94.30
7194;DHT22;3638;48.820;9.244;2023-07-20T02:53:11;19.50;94.80
7194;DHT22;3638;48.820;9.244;2023-07-20T02:55:38;18.30;94.60
7194;DHT22;3638;48.820;9.244;2023-07-20T02:58:06;18.30;94.40
7194;DHT22;3638;48.820;9.244;2023-07-20T03:00:33;18.30;94.60
7194;DHT22;3638;48.820;9.244;2023-07-20T03:03:00;18.20;94.70
7194;DHT22;3638;48.820;9.244;2023-07-20T03:05:27;18.20;95.00
7194;DHT22;3638;48.820;9.244;2023-07-20T03:07:55;18.20;95.30
7194;DHT22;3638;48.820;9.244;2023-07-20T03:10:22;18.20;95.20
7194;DHT22;3638;48.820;9.244;2023-07-20T03:12:48;18.20;95.10
7194;DHT22;3638;48.820;9.244;2023-07-20T03:15:17;18.20;95.30
7194;DHT22;3638;48.820;9.244;2023-07-20T03:17:44;18.20;95.30
7194;DHT22;3638;48.820;9.244;2023-07-20T03:20:11;18.00;95.50
7194;DHT22;3638;48.820;9.244;2023-07-20T03:22:38;18.00;95.50
7194;DHT22;3638;48.820;9.244;2023-07-20T03:25:05;18.00;95.80
7194;DHT22;3638;48.820;9.244;2023-07-20T03:27:33;17.90;95.70
7194;DHT22;3638;48.820;9.244;2023-07-20T03:30:00;17.90;96.00
7194;DHT22;3638;48.820;9.244;2023-07-20T03:32:28;17.90;95.70
7194;DHT22;3638;48.820;9.244;2023-07-20T03:34:55;17.50;95.90
7194;DHT22;3638;48.820;9.244;2023-07-20T03:37:22;17.90;96.40
7194;DHT22;3638;48.820;9.244;2023-07-20T03:39:49;17.90;96.20
7194;DHT22;3638;48.820;9.244;2023-07-20T03:42:16;17.70;96.40
7194;DHT22;3638;48.820;9.244;2023-07-20T03:44:43;17.80;96.50
7194;DHT22;3638;48.820;9.244;2023-07-20T03:47:10;17.80;96.70
7194;DHT22;3638;48.820;9.244;2023-07-20T03:49:38;17.80;96.70
7194;DHT22;3638;48.820;9.244;2023-07-20T03:52:05;17.80;96.80
7194;DHT22;3638;48.820;9.244;2023-07-20T03:54:32;17.90;96.40
7194;DHT22;3638;48.820;9.244;2023-07-20T03:56:59;17.80;96.80
7194;DHT22;3638;48.820;9.244;2023-07-20T03:59:27;17.90;96.90
7194;DHT22;3638;48.820;9.244;2023-07-20T04:01:53;17.90;96.80
7194;DHT22;3638;48.820;9.244;2023-07-20T04:04:20;17.90;96.90
7194;DHT22;3638;48.820;9.244;2023-07-20T04:06:48;18.00;96.70
7194;DHT22;3638;48.820;9.244;2023-07-20T04:09:15;18.00;96.60
7194;DHT22;3638;48.820;9.244;2023-07-20T04:11:42;18.00;97.00
7194;DHT22;3638;48.820;9.244;2023-07-20T04:14:09;18.00;96.70
7194;DHT22;3638;48.820;9.244;2023-07-20T04:16:36;18.00;97.00
7194;DHT22;3638;48.820;9.244;2023-07-20T04:19:03;18.10;96.70
7194;DHT22;3638;48.820;9.244;2023-07-20T04:21:29;18.10;96.80
7194;DHT22;3638;48.820;9.244;2023-07-20T04:23:58;18.00;96.90
7194;DHT22;3638;48.820;9.244;2023-07-20T04:26:24;18.00;97.40
7194;DHT22;3638;48.820;9.244;2023-07-20T04:28:51;18.10;97.20
7194;DHT22;3638;48.820;9.244;2023-07-20T04:31:18;18.20;97.10
7194;DHT22;3638;48.820;9.244;2023-07-20T04:33:45;18.50;96.50
7194;DHT22;3638;48.820;9.244;2023-07-20T04:36:12;18.50;96.70
7194;DHT22;3638;48.820;9.244;2023-07-20T04:38:42;18.60;96.40
7194;DHT22;3638;48.820;9.244;2023-07-20T04:41:10;18.80;96.10
7194;DHT22;3638;48.820;9.244;2023-07-20T04:43:41;19.00;95.70
7194;DHT22;3638;48.820;9.244;2023-07-20T04:46:08;19.00;96.10
7194;DHT22;3638;48.820;9.244;2023-07-20T04:48:35;19.20;95.80
7194;DHT22;3638;48.820;9.244;2023-07-20T04:51:02;19.80;94.50
7194;DHT22;3638;48.820;9.244;2023-07-20T04:53:29;19.80;94.50
7194;DHT22;3638;48.820;9.244;2023-07-20T04:55:57;19.90;94.60
7194;DHT22;3638;48.820;9.244;2023-07-20T04:58:26;19.90;94.70
7194;DHT22;3638;48.820;9.244;2023-07-20T05:00:53;20.00;94.20
7194;DHT22;3638;48.820;9.244;2023-07-20T05:03:19;20.20;94.10
7194;DHT22;3638;48.820;9.244;2023-07-20T05:05:47;20.20;94.40
7194;DHT22;3638;48.820;9.244;2023-07-20T05:08:14;20.30;94.20
7194;DHT22;3638;48.820;9.244;2023-07-20T05:10:41;20.40;94.30
7194;DHT22;3638;48.820;9.244;2023-07-20T05:13:08;20.90;93.70
7194;DHT22;3638;48.820;9.244;2023-07-20T05:15:36;20.90;93.60
7194;DHT22;3638;48.820;9.244;2023-07-20T05:18:03;21.00;93.40
7194;DHT22;3638;48.820;9.244;2023-07-20T05:20:30;21.10;93.50
7194;DHT22;3638;48.820;9.244;2023-07-20T05:22:58;21.30;94.00
7194;DHT22;3638;48.820;9.244;2023-07-20T05:25:25;21.50;92.80
7194;DHT22;3638;48.820;9.244;2023-07-20T05:27:52;21.50;92.40
7194;DHT22;3638;48.820;9.244;2023-07-20T05:30:20;21.50;92.60
7194;DHT22;3638;48.820;9.244;2023-07-20T05:32:49;21.60;92.00
7194;DHT22;3638;48.820;9.244;2023-07-20T05:35:17;21.70;92.30
7194;DHT22;3638;48.820;9.244;2023-07-20T05:37:44;21.80;92.20
7194;DHT22;3638;48.820;9.244;2023-07-20T05:40:12;22.00;91.80
7194;DHT22;3638;48.820;9.244;2023-07-20T05:42:43;22.10;91.70
7194;DHT22;3638;48.820;9.244;2023-07-20T05:45:10;22.60;90.90
7194;DHT22;3638;48.820;9.244;2023-07-20T05:47:38;22.70;90.90
7194;DHT22;3638;48.820;9.244;2023-07-20T05:50:07;22.80;90.70
7194;DHT22;3638;48.820;9.244;2023-07-20T05:55:01;22.70;90.80
7194;DHT22;3638;48.820;9.244;2023-07-20T05:57:28;23.10;90.20
7194;DHT22;3638;48.820;9.244;2023-07-20T05:59:55;22.80;90.30
7194;DHT22;3638;48.820;9.244;2023-07-20T06:02:22;22.70;90.10
7194;DHT22;3638;48.820;9.244;2023-07-20T06:04:49;22.60;90.50
7194;DHT22;3638;48.820;9.244;2023-07-20T06:07:17;22.70;90.40
7194;DHT22;3638;48.820;9.244;2023-07-20T06:09:44;22.90;90.40
7194;DHT22;3638;48.820;9.244;2023-07-20T06:12:11;23.50;89.40
7194;DHT22;3638;48.820;9.244;2023-07-20T06:17:05;23.30;88.30
7194;DHT22;3638;48.820;9.244;2023-07-20T06:19:32;23.20;90.50
7194;DHT22;3638;48.820;9.244;2023-07-20T06:21:59;23.20;88.30
7194;DHT22;3638;48.820;9.244;2023-07-20T06:24:27;23.30;89.40
7194;DHT22;3638;48.820;9.244;2023-07-20T06:26:54;23.70;88.40
7194;DHT22;3638;48.820;9.244;2023-07-20T06:29:21;23.60;88.60
7194;DHT22;3638;48.820;9.244;2023-07-20T06:31:48;23.00;90.70
7194;DHT22;3638;48.820;9.244;2023-07-20T06:34:15;23.00;90.10
7194;DHT22;3638;48.820;9.244;2023-07-20T06:36:42;23.00;90.20
7194;DHT22;3638;48.820;9.244;2023-07-20T06:39:08;22.60;90.90
7194;DHT22;3638;48.820;9.244;2023-07-20T06:41:36;23.80;92.00
7194;DHT22;3638;48.820;9.244;2023-07-20T06:44:04;22.90;91.00
7194;DHT22;3638;48.820;9.244;2023-07-20T06:46:30;23.30;90.60
7194;DHT22;3638;48.820;9.244;2023-07-20T06:48:57;23.50;90.10
7194;DHT22;3638;48.820;9.244;2023-07-20T06:51:24;23.80;90.00
7194;DHT22;3638;48.820;9.244;2023-07-20T06:53:51;23.80;90.00
7194;DHT22;3638;48.820;9.244;2023-07-20T06:56:18;23.50;90.40
7194;DHT22;3638;48.820;9.244;2023-07-20T06:58:46;23.10;91.00
7194;DHT22;3638;48.820;9.244;2023-07-20T07:01:13;22.90;91.20
7194;DHT22;3638;48.820;9.244;2023-07-20T07:03:40;23.10;91.30
7194;DHT22;3638;48.820;9.244;2023-07-20T07:06:07;23.10;91.60
7194;DHT22;3638;48.820;9.244;2023-07-20T07:08:34;23.20;91.30
7194;DHT22;3638;48.820;9.244;2023-07-20T07:11:01;23.30;90.40
7194;DHT22;3638;48.820;9.244;2023-07-20T07:13:28;23.90;90.10
7194;DHT22;3638;48.820;9.244;2023-07-20T07:15:57;24.10;89.00
7194;DHT22;3638;48.820;9.244;2023-07-20T07:18:24;24.20;88.60
7194;DHT22;3638;48.820;9.244;2023-07-20T07:20:52;24.50;87.30
7194;DHT22;3638;48.820;9.244;2023-07-20T07:23:19;24.60;86.80
7194;DHT22;3638;48.820;9.244;2023-07-20T07:25:46;24.50;87.00
7194;DHT22;3638;48.820;9.244;2023-07-20T07:28:13;24.40;88.00
7194;DHT22;3638;48.820;9.244;2023-07-20T07:30:40;24.10;87.60
7194;DHT22;3638;48.820;9.244;2023-07-20T07:33:08;24.20;88.60
7194;DHT22;3638;48.820;9.244;2023-07-20T07:35:36;24.10;88.00
7194;DHT22;3638;48.820;9.244;2023-07-20T07:38:03;24.10;88.30
7194;DHT22;3638;48.820;9.244;2023-07-20T07:40:32;25.10;85.00
7194;DHT22;3638;48.820;9.244;2023-07-20T07:42:58;25.30;84.80
7194;DHT22;3638;48.820;9.244;2023-07-20T07:45:25;25.40;83.00
7194;DHT22;3638;48.820;9.244;2023-07-20T07:47:52;25.20;83.10
7194;DHT22;3638;48.820;9.244;2023-07-20T07:50:20;24.90;84.20
7194;DHT22;3638;48.820;9.244;2023-07-20T07:52:47;25.10;82.50
7194;DHT22;3638;48.820;9.244;2023-07-20T07:55:14;25.20;82.90
7194;DHT22;3638;48.820;9.244;2023-07-20T07:57:43;25.10;83.50
7194;DHT22;3638;48.820;9.244;2023-07-20T08:00:10;25.10;83.70
7194;DHT22;3638;48.820;9.244;2023-07-20T08:02:40;25.10;81.60
7194;DHT22;3638;48.820;9.244;2023-07-20T08:05:08;25.40;83.20
7194;DHT22;3638;48.820;9.244;2023-07-20T08:07:37;26.00;81.40
7194;DHT22;3638;48.820;9.244;2023-07-20T08:10:04;26.40;79.90
7194;DHT22;3638;48.820;9.244;2023-07-20T08:12:32;26.60;80.50
7194;DHT22;3638;48.820;9.244;2023-07-20T08:14:59;26.50;79.50
7194;DHT22;3638;48.820;9.244;2023-07-20T08:17:26;26.20;80.50
7194;DHT22;3638;48.820;9.244;2023-07-20T08:19:53;26.20;81.30
7194;DHT22;3638;48.820;9.244;2023-07-20T08:22:20;26.00;80.20
7194;DHT22;3638;48.820;9.244;2023-07-20T08:24:48;25.80;81.30
7194;DHT22;3638;48.820;9.244;2023-07-20T08:27:15;25.60;80.70
7194;DHT22;3638;48.820;9.244;2023-07-20T08:29:41;25.40;80.60
7194;DHT22;3638;48.820;9.244;2023-07-20T08:32:08;25.20;81.60
7194;DHT22;3638;48.820;9.244;2023-07-20T08:34:35;25.20;81.80
7194;DHT22;3638;48.820;9.244;2023-07-20T08:37:02;25.00;82.70
7194;DHT22;3638;48.820;9.244;2023-07-20T08:39:29;24.50;83.80
7194;DHT22;3638;48.820;9.244;2023-07-20T08:41:59;23.90;84.70
7194;DHT22;3638;48.820;9.244;2023-07-20T08:44:30;23.80;85.50
7194;DHT22;3638;48.820;9.244;2023-07-20T08:46:58;23.90;85.10
7194;DHT22;3638;48.820;9.244;2023-07-20T08:51:56;25.30;81.60
7194;DHT22;3638;48.820;9.244;2023-07-20T08:54:24;25.80;80.60
7194;DHT22;3638;48.820;9.244;2023-07-20T08:56:58;26.10;78.30
7194;DHT22;3638;48.820;9.244;2023-07-20T08:59:29;25.60;77.60
7194;DHT22;3638;48.820;9.244;2023-07-20T09:01:56;25.50;79.20
7194;DHT22;3638;48.820;9.244;2023-07-20T09:04:23;26.30;78.30
7194;DHT22;3638;48.820;9.244;2023-07-20T09:06:50;26.30;77.80
7194;DHT22;3638;48.820;9.244;2023-07-20T09:09:18;26.20;79.00
7194;DHT22;3638;48.820;9.244;2023-07-20T09:11:47;25.80;77.20
7194;DHT22;3638;48.820;9.244;2023-07-20T09:14:15;26.30;77.10
7194;DHT22;3638;48.820;9.244;2023-07-20T09:16:50;26.20;78.20
7194;DHT22;3638;48.820;9.244;2023-07-20T09:19:18;26.00;76.20
7194;DHT22;3638;48.820;9.244;2023-07-20T09:21:46;26.20;77.50
7194;DHT22;3638;48.820;9.244;2023-07-20T09:24:14;26.50;76.00
7194;DHT22;3638;48.820;9.244;2023-07-20T09:26:41;27.00;75.80
7194;DHT22;3638;48.820;9.244;2023-07-20T09:29:09;27.00;75.70
7194;DHT22;3638;48.820;9.244;2023-07-20T09:31:38;26.20;76.20
7194;DHT22;3638;48.820;9.244;2023-07-20T09:34:05;25.60;78.20
7194;DHT22;3638;48.820;9.244;2023-07-20T09:36:33;25.10;79.70
7194;DHT22;3638;48.820;9.244;2023-07-20T09:39:01;25.20;79.70
7194;DHT22;3638;48.820;9.244;2023-07-20T09:41:30;25.30;78.40
7194;DHT22;3638;48.820;9.244;2023-07-20T09:44:07;25.00;77.20
7194;DHT22;3638;48.820;9.244;2023-07-20T09:46:44;25.00;77.70
7194;DHT22;3638;48.820;9.244;2023-07-20T09:49:12;25.20;77.90
7194;DHT22;3638;48.820;9.244;2023-07-20T09:51:39;24.90;77.90
7194;DHT22;3638;48.820;9.244;2023-07-20T09:54:07;25.00;79.90
7194;DHT22;3638;48.820;9.244;2023-07-20T09:56:35;25.60;78.10
7194;DHT22;3638;48.820;9.244;2023-07-20T09:59:02;25.90;75.80
7194;DHT22;3638;48.820;9.244;2023-07-20T10:01:30;26.60;75.20
7194;DHT22;3638;48.820;9.244;2023-07-20T10:04:03;26.40;72.40
7194;DHT22;3638;48.820;9.244;2023-07-20T10:06:32;26.40;74.40
7194;DHT22;3638;48.820;9.244;2023-07-20T10:09:02;26.40;72.00
7194;DHT22;3638;48.820;9.244;2023-07-20T10:11:35;26.40;72.20
7194;DHT22;3638;48.820;9.244;2023-07-20T10:14:03;26.60;72.50
7194;DHT22;3638;48.820;9.244;2023-07-20T10:16:35;26.70;71.10
7194;DHT22;3638;48.820;9.244;2023-07-20T10:19:07;26.70;71.40
7194;DHT22;3638;48.820;9.244;2023-07-20T10:21:37;26.70;72.10
7194;DHT22;3638;48.820;9.244;2023-07-20T10:24:09;26.80;69.50
7194;DHT22;3638;48.820;9.244;2023-07-20T10:26:36;27.30;69.90
7194;DHT22;3638;48.820;9.244;2023-07-20T10:29:04;27.00;69.30
7194;DHT22;3638;48.820;9.244;2023-07-20T10:31:32;26.70;67.90
7194;DHT22;3638;48.820;9.244;2023-07-20T10:33:59;26.70;69.60
7194;DHT22;3638;48.820;9.244;2023-07-20T10:36:28;26.50;67.20
7194;DHT22;3638;48.820;9.244;2023-07-20T10:38:56;26.70;68.40
7194;DHT22;3638;48.820;9.244;2023-07-20T10:41:28;26.60;68.90
7194;DHT22;3638;48.820;9.244;2023-07-20T10:43:58;26.20;68.50
7194;DHT22;3638;48.820;9.244;2023-07-20T10:46:45;26.10;70.60
7194;DHT22;3638;48.820;9.244;2023-07-20T10:49:13;26.20;69.90
7194;DHT22;3638;48.820;9.244;2023-07-20T10:51:43;26.20;69.20
7194;DHT22;3638;48.820;9.244;2023-07-20T10:54:34;25.80;69.90
7194;DHT22;3638;48.820;9.244;2023-07-20T10:57:29;25.70;69.60
7194;DHT22;3638;48.820;9.244;2023-07-20T11:00:10;25.80;70.00
7194;DHT22;3638;48.820;9.244;2023-07-20T11:02:46;25.80;67.80
7194;DHT22;3638;48.820;9.244;2023-07-20T11:05:37;25.80;68.20
7194;DHT22;3638;48.820;9.244;2023-07-20T11:08:10;26.10;66.50
7194;DHT22;3638;48.820;9.244;2023-07-20T11:10:38;25.80;67.60
7194;DHT22;3638;48.820;9.244;2023-07-20T11:13:19;25.90;68.80
7194;DHT22;3638;48.820;9.244;2023-07-20T11:16:01;26.10;68.70
7194;DHT22;3638;48.820;9.244;2023-07-20T11:18:30;26.10;67.50
7194;DHT22;3638;48.820;9.244;2023-07-20T11:21:00;26.20;65.90
7194;DHT22;3638;48.820;9.244;2023-07-20T11:23:29;25.70;66.00
7194;DHT22;3638;48.820;9.244;2023-07-20T11:25:58;25.70;66.60
7194;DHT22;3638;48.820;9.244;2023-07-20T11:28:25;25.60;66.30
7194;DHT22;3638;48.820;9.244;2023-07-20T11:30:53;25.90;66.80
7194;DHT22;3638;48.820;9.244;2023-07-20T11:33:20;26.20;65.20
7194;DHT22;3638;48.820;9.244;2023-07-20T11:35:49;26.30;66.10
7194;DHT22;3638;48.820;9.244;2023-07-20T11:38:16;26.60;64.80
7194;DHT22;3638;48.820;9.244;2023-07-20T11:40:45;26.60;65.10
7194;DHT22;3638;48.820;9.244;2023-07-20T11:43:14;26.60;64.90
7194;DHT22;3638;48.820;9.244;2023-07-20T11:45:41;26.40;65.20
7194;DHT22;3638;48.820;9.244;2023-07-20T11:48:15;26.50;65.70
7194;DHT22;3638;48.820;9.244;2023-07-20T11:50:42;26.40;65.60
7194;DHT22;3638;48.820;9.244;2023-07-20T11:53:09;26.30;63.40
7194;DHT22;3638;48.820;9.244;2023-07-20T11:55:38;26.20;61.40
7194;DHT22;3638;48.820;9.244;2023-07-20T11:58:07;26.00;63.80
7194;DHT22;3638;48.820;9.244;2023-07-20T12:00:36;26.10;64.10
7194;DHT22;3638;48.820;9.244;2023-07-20T12:03:06;26.20;63.80
7194;DHT22;3638;48.820;9.244;2023-07-20T12:05:33;25.80;64.20
7194;DHT22;3638;48.820;9.244;2023-07-20T12:08:00;25.80;66.20
7194;DHT22;3638;48.820;9.244;2023-07-20T12:10:28;26.10;65.20
7194;DHT22;3638;48.820;9.244;2023-07-20T12:13:01;26.10;63.70
7194;DHT22;3638;48.820;9.244;2023-07-20T12:15:30;26.00;63.10
7194;DHT22;3638;48.820;9.244;2023-07-20T12:17:58;25.40;64.10
7194;DHT22;3638;48.820;9.244;2023-07-20T12:20:29;25.60;65.30
7194;DHT22;3638;48.820;9.244;2023-07-20T12:23:00;25.70;64.90
7194;DHT22;3638;48.820;9.244;2023-07-20T12:25:38;25.80;65.70
7194;DHT22;3638;48.820;9.244;2023-07-20T12:28:07;25.90;65.00
7194;DHT22;3638;48.820;9.244;2023-07-20T12:30:36;26.00;62.90
7194;DHT22;3638;48.820;9.244;2023-07-20T12:33:03;26.10;64.30
7194;DHT22;3638;48.820;9.244;2023-07-20T12:35:31;26.10;65.00
7194;DHT22;3638;48.820;9.244;2023-07-20T12:37:58;25.50;64.00
7194;DHT22;3638;48.820;9.244;2023-07-20T12:40:25;25.60;64.90
7194;DHT22;3638;48.820;9.244;2023-07-20T12:42:52;25.30;63.10
7194;DHT22;3638;48.820;9.244;2023-07-20T12:45:19;25.20;64.50
7194;DHT22;3638;48.820;9.244;2023-07-20T12:47:47;25.20;65.90
7194;DHT22;3638;48.820;9.244;2023-07-20T12:50:14;25.60;64.90
7194;DHT22;3638;48.820;9.244;2023-07-20T12:52:41;25.90;65.00
7194;DHT22;3638;48.820;9.244;2023-07-20T12:55:09;26.20;64.60
7194;DHT22;3638;48.820;9.244;2023-07-20T12:57:37;26.30;64.00
7194;DHT22;3638;48.820;9.244;2023-07-20T13:00:06;26.60;62.20
7194;DHT22;3638;48.820;9.244;2023-07-20T13:02:38;26.40;63.10
7194;DHT22;3638;48.820;9.244;2023-07-20T13:05:07;26.40;63.30
7194;DHT22;3638;48.820;9.244;2023-07-20T13:07:35;26.50;61.40
7194;DHT22;3638;48.820;9.244;2023-07-20T13:10:03;26.30;61.30
7194;DHT22;3638;48.820;9.244;2023-07-20T13:12:32;26.40;59.50
7194;DHT22;3638;48.820;9.244;2023-07-20T13:15:00;26.40;60.30
7194;DHT22;3638;48.820;9.244;2023-07-20T13:17:31;25.80;61.90
7194;DHT22;3638;48.820;9.244;2023-07-20T13:19:58;25.70;62.50
7194;DHT22;3638;48.820;9.244;2023-07-20T13:22:26;25.30;63.70
7194;DHT22;3638;48.820;9.244;2023-07-20T13:24:53;25.30;64.50
7194;DHT22;3638;48.820;9.244;2023-07-20T13:27:20;25.40;63.50
7194;DHT22;3638;48.820;9.244;2023-07-20T13:29:47;25.70;62.10
7194;DHT22;3638;48.820;9.244;2023-07-20T13:32:15;25.70;62.90
7194;DHT22;3638;48.820;9.244;2023-07-20T13:34:43;26.00;62.50
7194;DHT22;3638;48.820;9.244;2023-07-20T13:37:11;26.10;61.90
7194;DHT22;3638;48.820;9.244;2023-07-20T13:39:39;26.20;60.30
7194;DHT22;3638;48.820;9.244;2023-07-20T13:42:07;25.90;61.10
7194;DHT22;3638;48.820;9.244;2023-07-20T13:44:34;25.90;60.40
7194;DHT22;3638;48.820;9.244;2023-07-20T13:47:01;28.30;62.90
7194;DHT22;3638;48.820;9.244;2023-07-20T13:49:28;25.70;59.60
7194;DHT22;3638;48.820;9.244;2023-07-20T13:51:56;27.90;61.90
7194;DHT22;3638;48.820;9.244;2023-07-20T13:54:23;25.90;61.30
7194;DHT22;3638;48.820;9.244;2023-07-20T13:56:51;25.90;61.70
7194;DHT22;3638;48.820;9.244;2023-07-20T13:59:18;25.80;61.50
7194;DHT22;3638;48.820;9.244;2023-07-20T14:01:45;26.00;61.90
7194;DHT22;3638;48.820;9.244;2023-07-20T14:04:13;26.00;60.20
7194;DHT22;3638;48.820;9.244;2023-07-20T14:06:39;26.00;61.20
7194;DHT22;3638;48.820;9.244;2023-07-20T14:09:06;26.00;59.50
7194;DHT22;3638;48.820;9.244;2023-07-20T14:11:33;25.80;60.70
7194;DHT22;3638;48.820;9.244;2023-07-20T14:14:01;26.00;61.40
7194;DHT22;3638;48.820;9.244;2023-07-20T14:16:28;26.20;60.70
7194;DHT22;3638;48.820;9.244;2023-07-20T14:18:57;26.40;60.90
7194;DHT22;3638;48.820;9.244;2023-07-20T14:21:24;26.40;61.50
7194;DHT22;3638;48.820;9.244;2023-07-20T14:23:52;26.30;60.10
7194;DHT22;3638;48.820;9.244;2023-07-20T14:26:19;26.20;58.90
7194;DHT22;3638;48.820;9.244;2023-07-20T14:28:46;26.20;59.30
7194;DHT22;3638;48.820;9.244;2023-07-20T14:31:14;25.40;58.60
7194;DHT22;3638;48.820;9.244;2023-07-20T14:33:41;26.20;59.90
7194;DHT22;3638;48.820;9.244;2023-07-20T14:36:09;26.20;60.90
7194;DHT22;3638;48.820;9.244;2023-07-20T14:38:36;26.30;61.20
7194;DHT22;3638;48.820;9.244;2023-07-20T14:41:03;26.40;59.10
7194;DHT22;3638;48.820;9.244;2023-07-20T14:43:31;26.50;59.00
7194;DHT22;3638;48.820;9.244;2023-07-20T14:45:58;26.40;59.30
7194;DHT22;3638;48.820;9.244;2023-07-20T14:48:26;26.50;58.80
7194;DHT22;3638;48.820;9.244;2023-07-20T14:50:53;26.60;59.40
7194;DHT22;3638;48.820;9.244;2023-07-20T14:53:20;26.40;57.70
7194;DHT22;3638;48.820;9.244;2023-07-20T14:55:47;26.20;58.20
7194;DHT22;3638;48.820;9.244;2023-07-20T14:58:13;26.10;57.70
7194;DHT22;3638;48.820;9.244;2023-07-20T15:00:40;25.80;57.80
7194;DHT22;3638;48.820;9.244;2023-07-20T15:03:07;25.60;58.10
7194;DHT22;3638;48.820;9.244;2023-07-20T15:05:36;25.60;58.50
7194;DHT22;3638;48.820;9.244;2023-07-20T15:08:04;25.80;57.20
7194;DHT22;3638;48.820;9.244;2023-07-20T15:10:31;25.80;58.40
7194;DHT22;3638;48.820;9.244;2023-07-20T15:12:59;25.90;57.90
7194;DHT22;3638;48.820;9.244;2023-07-20T15:15:26;25.90;58.00
7194;DHT22;3638;48.820;9.244;2023-07-20T15:17:52;26.10;58.10
7194;DHT22;3638;48.820;9.244;2023-07-20T15:20:19;26.10;59.50
7194;DHT22;3638;48.820;9.244;2023-07-20T15:22:48;25.90;58.00
7194;DHT22;3638;48.820;9.244;2023-07-20T15:25:15;26.10;58.60
7194;DHT22;3638;48.820;9.244;2023-07-20T15:27:42;26.00;59.00
7194;DHT22;3638;48.820;9.244;2023-07-20T15:30:09;26.20;58.40
7194;DHT22;3638;48.820;9.244;2023-07-20T15:32:37;26.50;58.20
7194;DHT22;3638;48.820;9.244;2023-07-20T15:35:06;26.50;58.20
7194;DHT22;3638;48.820;9.244;2023-07-20T15:37:33;26.40;57.50
7194;DHT22;3638;48.820;9.244;2023-07-20T15:40:02;26.20;57.30
7194;DHT22;3638;48.820;9.244;2023-07-20T15:42:30;26.20;57.00
7194;DHT22;3638;48.820;9.244;2023-07-20T15:44:57;25.80;57.30
7194;DHT22;3638;48.820;9.244;2023-07-20T15:47:24;25.80;57.90
7194;DHT22;3638;48.820;9.244;2023-07-20T15:49:51;25.70;57.60
7194;DHT22;3638;48.820;9.244;2023-07-20T15:54:45;25.50;58.50
7194;DHT22;3638;48.820;9.244;2023-07-20T15:57:13;25.50;58.20
7194;DHT22;3638;48.820;9.244;2023-07-20T15:59:40;25.60;58.70
7194;DHT22;3638;48.820;9.244;2023-07-20T16:02:07;25.50;58.30
7194;DHT22;3638;48.820;9.244;2023-07-20T16:04:34;25.60;58.40
7194;DHT22;3638;48.820;9.244;2023-07-20T16:07:01;25.60;58.60
7194;DHT22;3638;48.820;9.244;2023-07-20T16:09:27;25.40;59.20
7194;DHT22;3638;48.820;9.244;2023-07-20T16:11:54;25.50;59.30
7194;DHT22;3638;48.820;9.244;2023-07-20T16:14:22;25.70;59.50
7194;DHT22;3638;48.820;9.244;2023-07-20T16:16:49;26.00;59.00
7194;DHT22;3638;48.820;9.244;2023-07-20T16:19:16;26.00;59.70
7194;DHT22;3638;48.820;9.244;2023-07-20T16:21:43;25.80;59.30
7194;DHT22;3638;48.820;9.244;2023-07-20T16:24:10;25.60;59.00
7194;DHT22;3638;48.820;9.244;2023-07-20T16:26:37;25.60;58.50
7194;DHT22;3638;48.820;9.244;2023-07-20T16:29:09;25.50;58.90
7194;DHT22;3638;48.820;9.244;2023-07-20T16:31:37;25.60;58.50
7194;DHT22;3638;48.820;9.244;2023-07-20T16:34:04;25.50;57.30
7194;DHT22;3638;48.820;9.244;2023-07-20T16:36:31;25.50;58.10
7194;DHT22;3638;48.820;9.244;2023-07-20T16:39:00;25.10;57.40